sensor_id;sensor_type;location;lat;lon;timestamp;temperature;humidity
42037;DHT22;30340;52.004;5.908;2023-11-21T00:02:11;10.30;97.60
42037;DHT22;30340;52.004;5.908;2023-11-21T00:04:37;10.30;97.60
42037;DHT22;30340;52.004;5.908;2023-11-21T00:07:03;10.30;97.60
42037;DHT22;30340;52.004;5.908;2023-11-21T00:09:28;10.30;97.60
42037;DHT22;30340;52.004;5.908;2023-11-21T00:11:54;10.30;97.60
42037;DHT22;30340;52.004;5.908;2023-11-21T00:14:19;10.30;97.50
42037;DHT22;30340;52.004;5.908;2023-11-21T00:16:44;10.30;97.60
42037;DHT22;30340;52.004;5.908;2023-11-21T00:19:10;10.20;97.50
42037;DHT22;30340;52.004;5.908;2023-11-21T00:21:36;10.30;97.60
42037;DHT22;30340;52.004;5.908;2023-11-21T00:24:01;10.30;97.50
42037;DHT22;30340;52.004;5.908;2023-11-21T00:26:27;10.20;97.50
42037;DHT22;30340;52.004;5.908;2023-11-21T00:28:53;10.20;97.50
42037;DHT22;30340;52.004;5.908;2023-11-21T00:31:18;10.20;97.60
42037;DHT22;30340;52.004;5.908;2023-11-21T00:33:44;10.20;97.50
42037;DHT22;30340;52.004;5.908;2023-11-21T00:36:09;10.20;97.60
42037;DHT22;30340;52.004;5.908;2023-11-21T00:38:35;10.30;97.60
42037;DHT22;30340;52.004;5.908;2023-11-21T00:41:01;10.30;97.60
42037;DHT22;30340;52.004;5.908;2023-11-21T00:43:26;10.30;97.40
42037;DHT22;30340;52.004;5.908;2023-11-21T00:45:52;10.30;97.40
42037;DHT22;30340;52.004;5.908;2023-11-21T00:48:17;10.30;97.50
42037;DHT22;30340;52.004;5.908;2023-11-21T00:50:45;10.30;97.40
42037;DHT22;30340;52.004;5.908;2023-11-21T00:53:11;10.30;97.40
42037;DHT22;30340;52.004;5.908;2023-11-21T00:55:37;10.30;97.70
42037;DHT22;30340;52.004;5.908;2023-11-21T00:58:05;10.30;97.40
42037;DHT22;30340;52.004;5.908;2023-11-21T01:00:32;10.30;97.30
42037;DHT22;30340;52.004;5.908;2023-11-21T01:02:58;10.30;97.30
42037;DHT22;30340;52.004;5.908;2023-11-21T01:05:23;10.30;97.30
42037;DHT22;30340;52.004;5.908;2023-11-21T01:07:49;10.30;97.50
42037;DHT22;30340;52.004;5.908;2023-11-21T01:10:14;10.30;97.40
42037;DHT22;30340;52.004;5.908;2023-11-21T01:12:42;10.40;97.50
42037;DHT22;30340;52.004;5.908;2023-11-21T01:15:08;10.40;97.50
42037;DHT22;30340;52.004;5.908;2023-11-21T01:17:34;10.40;97.50
42037;DHT22;30340;52.004;5.908;2023-11-21T01:19:59;10.40;97.50
42037;DHT22;30340;52.004;5.908;2023-11-21T01:22:25;10.40;97.50
42037;DHT22;30340;52.004;5.908;2023-11-21T01:24:52;10.40;97.50
42037;DHT22;30340;52.004;5.908;2023-11-21T01:27:18;10.40;97.50
42037;DHT22;30340;52.004;5.908;2023-11-21T01:29:43;10.40;97.50
42037;DHT22;30340;52.004;5.908;2023-11-21T01:32:09;10.50;97.60
42037;DHT22;30340;52.004;5.908;2023-11-21T01:34:35;10.50;97.60
42037;DHT22;30340;52.004;5.908;2023-11-21T01:37:00;10.50;97.60
42037;DHT22;30340;52.004;5.908;2023-11-21T01:39:27;10.60;97.50
42037;DHT22;30340;52.004;5.908;2023-11-21T01:41:52;10.50;97.50
42037;DHT22;30340;52.004;5.908;2023-11-21T01:44:18;10.60;97.50
42037;DHT22;30340;52.004;5.908;2023-11-21T01:46:45;10.60;97.60
42037;DHT22;30340;52.004;5.908;2023-11-21T01:49:10;10.60;97.50
42037;DHT22;30340;52.004;5.908;2023-11-21T01:51:39;10.70;97.40
42037;DHT22;30340;52.004;5.908;2023-11-21T01:54:05;10.70;97.30
42037;DHT22;30340;52.004;5.908;2023-11-21T01:56:31;10.70;97.40
42037;DHT22;30340;52.004;5.908;2023-11-21T01:58:57;10.70;97.40
42037;DHT22;30340;52.004;5.908;2023-11-21T02:01:23;10.70;97.30
42037;DHT22;30340;52.004;5.908;2023-11-21T02:03:48;10.70;97.20
42037;DHT22;30340;52.004;5.908;2023-11-21T02:06:14;10.70;97.10
42037;DHT22;30340;52.004;5.908;2023-11-21T02:08:39;10.70;96.90
42037;DHT22;30340;52.004;5.908;2023-11-21T02:11:07;10.70;96.90
42037;DHT22;30340;52.004;5.908;2023-11-21T02:13:33;10.70;96.90
42037;DHT22;30340;52.004;5.908;2023-11-21T02:15:58;10.70;96.90
42037;DHT22;30340;52.004;5.908;2023-11-21T02:18:24;10.70;96.80
42037;DHT22;30340;52.004;5.908;2023-11-21T02:20:49;10.60;96.70
42037;DHT22;30340;52.004;5.908;2023-11-21T02:23:15;10.60;96.80
42037;DHT22;30340;52.004;5.908;2023-11-21T02:25:40;10.60;96.80
42037;DHT22;30340;52.004;5.908;2023-11-21T02:28:08;10.50;96.60
42037;DHT22;30340;52.004;5.908;2023-11-21T02:30:33;10.50;96.80
42037;DHT22;30340;52.004;5.908;2023-11-21T02:33:02;10.50;96.90
42037;DHT22;30340;52.004;5.908;2023-11-21T02:35:27;10.50;97.00
42037;DHT22;30340;52.004;5.908;2023-11-21T02:37:53;10.50;96.90
42037;DHT22;30340;52.004;5.908;2023-11-21T02:40:19;10.40;96.80
42037;DHT22;30340;52.004;5.908;2023-11-21T02:42:46;10.40;96.80
42037;DHT22;30340;52.004;5.908;2023-11-21T02:45:13;10.40;96.80
42037;DHT22;30340;52.004;5.908;2023-11-21T02:47:39;10.40;97.00
42037;DHT22;30340;52.004;5.908;2023-11-21T02:50:05;10.40;97.00
42037;DHT22;30340;52.004;5.908;2023-11-21T02:52:33;10.40;97.10
42037;DHT22;30340;52.004;5.908;2023-11-21T02:54:58;10.40;97.00
42037;DHT22;30340;52.004;5.908;2023-11-21T02:57:24;10.40;96.90
42037;DHT22;30340;52.004;5.908;2023-11-21T02:59:49;10.30;97.00
42037;DHT22;30340;52.004;5.908;2023-11-21T03:02:15;10.30;97.20
42037;DHT22;30340;52.004;5.908;2023-11-21T03:04:41;10.30;97.20
42037;DHT22;30340;52.004;5.908;2023-11-21T03:07:08;10.30;97.20
42037;DHT22;30340;52.004;5.908;2023-11-21T03:09:33;10.30;97.30
42037;DHT22;30340;52.004;5.908;2023-11-21T03:11:59;10.30;97.40
42037;DHT22;30340;52.004;5.908;2023-11-21T03:14:24;10.30;97.40
42037;DHT22;30340;52.004;5.908;2023-11-21T03:16:50;10.30;97.50
42037;DHT22;30340;52.004;5.908;2023-11-21T03:19:16;10.30;97.60
42037;DHT22;30340;52.004;5.908;2023-11-21T03:21:41;10.30;97.50
42037;DHT22;30340;52.004;5.908;2023-11-21T03:24:07;10.30;97.40
42037;DHT22;30340;52.004;5.908;2023-11-21T03:26:32;10.30;97.50
42037;DHT22;30340;52.004;5.908;2023-11-21T03:28:58;10.30;97.40
42037;DHT22;30340;52.004;5.908;2023-11-21T03:31:23;10.30;97.30
42037;DHT22;30340;52.004;5.908;2023-11-21T03:33:49;10.30;97.40
42037;DHT22;30340;52.004;5.908;2023-11-21T03:36:14;10.30;97.50
42037;DHT22;30340;52.004;5.908;2023-11-21T03:38:40;10.20;97.70
42037;DHT22;30340;52.004;5.908;2023-11-21T03:41:06;10.30;97.80
42037;DHT22;30340;52.004;5.908;2023-11-21T03:43:31;10.30;97.80
42037;DHT22;30340;52.004;5.908;2023-11-21T03:45:57;10.40;97.90
42037;DHT22;30340;52.004;5.908;2023-11-21T03:48:22;10.40;97.70
42037;DHT22;30340;52.004;5.908;2023-11-21T03:50:48;10.40;97.70
42037;DHT22;30340;52.004;5.908;2023-11-21T03:53:14;10.40;97.70
42037;DHT22;30340;52.004;5.908;2023-11-21T03:55:39;10.40;97.70
42037;DHT22;30340;52.004;5.908;2023-11-21T03:58:05;10.50;97.60
42037;DHT22;30340;52.004;5.908;2023-11-21T04:00:30;10.50;97.40
42037;DHT22;30340;52.004;5.908;2023-11-21T04:02:56;10.60;97.30
42037;DHT22;30340;52.004;5.908;2023-11-21T04:05:21;10.60;97.20
42037;DHT22;30340;52.004;5.908;2023-11-21T04:07:48;10.60;97.10
42037;DHT22;30340;52.004;5.908;2023-11-21T04:10:14;10.60;96.90
42037;DHT22;30340;52.004;5.908;2023-11-21T04:12:41;10.60;96.80
42037;DHT22;30340;52.004;5.908;2023-11-21T04:15:06;10.60;96.90
42037;DHT22;30340;52.004;5.908;2023-11-21T04:17:34;10.50;96.80
42037;DHT22;30340;52.004;5.908;2023-11-21T04:19:59;10.50;96.80
42037;DHT22;30340;52.004;5.908;2023-11-21T04:22:25;10.40;96.90
42037;DHT22;30340;52.004;5.908;2023-11-21T04:24:50;10.50;96.90
42037;DHT22;30340;52.004;5.908;2023-11-21T04:27:16;10.50;96.90
42037;DHT22;30340;52.004;5.908;2023-11-21T04:29:43;10.50;96.80
42037;DHT22;30340;52.004;5.908;2023-11-21T04:32:09;10.50;96.80
42037;DHT22;30340;52.004;5.908;2023-11-21T04:34:34;10.50;96.80
42037;DHT22;30340;52.004;5.908;2023-11-21T04:37:00;10.50;96.80
42037;DHT22;30340;52.004;5.908;2023-11-21T04:39:26;10.50;96.70
42037;DHT22;30340;52.004;5.908;2023-11-21T04:41:51;10.50;96.70
42037;DHT22;30340;52.004;5.908;2023-11-21T04:44:17;10.50;96.70
42037;DHT22;30340;52.004;5.908;2023-11-21T04:46:43;10.50;96.70
42037;DHT22;30340;52.004;5.908;2023-11-21T04:49:08;10.50;96.70
42037;DHT22;30340;52.004;5.908;2023-11-21T04:51:34;10.50;96.90
42037;DHT22;30340;52.004;5.908;2023-11-21T04:53:59;10.50;96.90
42037;DHT22;30340;52.004;5.908;2023-11-21T04:56:25;10.50;96.90
42037;DHT22;30340;52.004;5.908;2023-11-21T04:58:50;10.50;96.80
42037;DHT22;30340;52.004;5.908;2023-11-21T05:01:16;10.60;96.80
42037;DHT22;30340;52.004;5.908;2023-11-21T05:03:41;10.60;96.80
42037;DHT22;30340;52.004;5.908;2023-11-21T05:06:09;10.60;97.00
42037;DHT22;30340;52.004;5.908;2023-11-21T05:08:34;10.60;97.00
42037;DHT22;30340;52.004;5.908;2023-11-21T05:11:02;10.60;97.40
42037;DHT22;30340;52.004;5.908;2023-11-21T05:13:28;10.60;97.10
42037;DHT22;30340;52.004;5.908;2023-11-21T05:15:56;10.60;97.00
42037;DHT22;30340;52.004;5.908;2023-11-21T05:18:25;10.50;97.00
42037;DHT22;30340;52.004;5.908;2023-11-21T05:20:55;10.50;97.00
42037;DHT22;30340;52.004;5.908;2023-11-21T05:23:21;10.50;96.90
42037;DHT22;30340;52.004;5.908;2023-11-21T05:25:46;10.50;97.00
42037;DHT22;30340;52.004;5.908;2023-11-21T05:28:12;10.50;97.00
42037;DHT22;30340;52.004;5.908;2023-11-21T05:30:37;10.50;97.00
42037;DHT22;30340;52.004;5.908;2023-11-21T05:33:04;10.50;97.00
42037;DHT22;30340;52.004;5.908;2023-11-21T05:35:30;10.50;97.00
42037;DHT22;30340;52.004;5.908;2023-11-21T05:37:56;10.50;97.30
42037;DHT22;30340;52.004;5.908;2023-11-21T05:40:21;10.50;97.10
42037;DHT22;30340;52.004;5.908;2023-11-21T05:42:47;10.50;97.10
42037;DHT22;30340;52.004;5.908;2023-11-21T05:45:13;10.50;97.10
42037;DHT22;30340;52.004;5.908;2023-11-21T05:47:40;10.40;97.10
42037;DHT22;30340;52.004;5.908;2023-11-21T05:50:06;10.40;97.10
42037;DHT22;30340;52.004;5.908;2023-11-21T05:52:35;10.30;97.10
42037;DHT22;30340;52.004;5.908;2023-11-21T05:55:01;10.40;97.10
42037;DHT22;30340;52.004;5.908;2023-11-21T05:57:26;10.40;97.10
42037;DHT22;30340;52.004;5.908;2023-11-21T05:59:52;10.40;97.00
42037;DHT22;30340;52.004;5.908;2023-11-21T06:02:17;10.40;97.10
42037;DHT22;30340;52.004;5.908;2023-11-21T06:04:43;10.50;97.20
42037;DHT22;30340;52.004;5.908;2023-11-21T06:07:09;10.40;97.10
42037;DHT22;30340;52.004;5.908;2023-11-21T06:09:35;10.50;97.20
42037;DHT22;30340;52.004;5.908;2023-11-21T06:12:01;10.40;97.10
42037;DHT22;30340;52.004;5.908;2023-11-21T06:14:26;10.40;97.10
42037;DHT22;30340;52.004;5.908;2023-11-21T06:16:51;10.30;97.10
42037;DHT22;30340;52.004;5.908;2023-11-21T06:19:17;10.30;97.40
42037;DHT22;30340;52.004;5.908;2023-11-21T06:21:46;10.30;97.10
42037;DHT22;30340;52.004;5.908;2023-11-21T06:24:12;10.20;97.10
42037;DHT22;30340;52.004;5.908;2023-11-21T06:26:38;10.20;97.20
42037;DHT22;30340;52.004;5.908;2023-11-21T06:29:03;10.20;97.20
42037;DHT22;30340;52.004;5.908;2023-11-21T06:31:29;10.20;97.30
42037;DHT22;30340;52.004;5.908;2023-11-21T06:33:55;10.20;97.30
42037;DHT22;30340;52.004;5.908;2023-11-21T06:36:20;10.20;97.30
42037;DHT22;30340;52.004;5.908;2023-11-21T06:38:46;10.30;97.20
42037;DHT22;30340;52.004;5.908;2023-11-21T06:41:11;10.30;97.20
42037;DHT22;30340;52.004;5.908;2023-11-21T06:48:43;10.30;97.20
42037;DHT22;30340;52.004;5.908;2023-11-21T06:51:09;10.30;97.20
42037;DHT22;30340;52.004;5.908;2023-11-21T06:53:35;10.30;97.30
42037;DHT22;30340;52.004;5.908;2023-11-21T06:56:01;10.20;97.30
42037;DHT22;30340;52.004;5.908;2023-11-21T06:58:26;10.20;97.40
42037;DHT22;30340;52.004;5.908;2023-11-21T07:00:52;10.20;97.40
42037;DHT22;30340;52.004;5.908;2023-11-21T07:03:17;10.20;97.50
42037;DHT22;30340;52.004;5.908;2023-11-21T07:05:44;10.20;97.50
42037;DHT22;30340;52.004;5.908;2023-11-21T07:08:10;10.30;97.50
42037;DHT22;30340;52.004;5.908;2023-11-21T07:10:36;10.30;97.40
42037;DHT22;30340;52.004;5.908;2023-11-21T07:13:03;10.30;97.40
42037;DHT22;30340;52.004;5.908;2023-11-21T07:15:28;10.30;97.50
42037;DHT22;30340;52.004;5.908;2023-11-21T07:17:54;10.30;97.50
42037;DHT22;30340;52.004;5.908;2023-11-21T07:20:19;10.30;97.50
42037;DHT22;30340;52.004;5.908;2023-11-21T07:22:45;10.30;97.60
42037;DHT22;30340;52.004;5.908;2023-11-21T07:25:10;10.30;97.60
42037;DHT22;30340;52.004;5.908;2023-11-21T07:27:36;10.40;97.60
42037;DHT22;30340;52.004;5.908;2023-11-21T07:30:02;10.40;97.50
42037;DHT22;30340;52.004;5.908;2023-11-21T07:32:33;10.40;97.50
42037;DHT22;30340;52.004;5.908;2023-11-21T07:34:59;10.50;97.50
42037;DHT22;30340;52.004;5.908;2023-11-21T07:37:26;10.50;97.50
42037;DHT22;30340;52.004;5.908;2023-11-21T07:39:54;10.50;97.50
42037;DHT22;30340;52.004;5.908;2023-11-21T07:42:24;10.40;97.40
42037;DHT22;30340;52.004;5.908;2023-11-21T07:44:51;10.40;97.50
42037;DHT22;30340;52.004;5.908;2023-11-21T07:47:17;10.40;97.60
42037;DHT22;30340;52.004;5.908;2023-11-21T07:49:42;10.50;97.70
42037;DHT22;30340;52.004;5.908;2023-11-21T07:52:09;10.50;97.80
42037;DHT22;30340;52.004;5.908;2023-11-21T07:54:35;10.60;97.80
42037;DHT22;30340;52.004;5.908;2023-11-21T07:57:01;10.60;97.70
42037;DHT22;30340;52.004;5.908;2023-11-21T07:59:27;10.60;97.70
42037;DHT22;30340;52.004;5.908;2023-11-21T08:01:52;10.60;97.70
42037;DHT22;30340;52.004;5.908;2023-11-21T08:04:18;10.70;97.80
42037;DHT22;30340;52.004;5.908;2023-11-21T08:06:43;10.70;97.70
42037;DHT22;30340;52.004;5.908;2023-11-21T08:09:09;10.70;97.70
42037;DHT22;30340;52.004;5.908;2023-11-21T08:11:35;10.80;97.80
42037;DHT22;30340;52.004;5.908;2023-11-21T08:14:01;10.80;97.70
42037;DHT22;30340;52.004;5.908;2023-11-21T08:16:26;10.90;97.70
42037;DHT22;30340;52.004;5.908;2023-11-21T08:18:52;10.90;97.70
42037;DHT22;30340;52.004;5.908;2023-11-21T08:21:19;10.90;97.70
42037;DHT22;30340;52.004;5.908;2023-11-21T08:23:45;10.90;97.80
42037;DHT22;30340;52.004;5.908;2023-11-21T08:26:10;10.90;97.90
42037;DHT22;30340;52.004;5.908;2023-11-21T08:28:36;10.90;98.00
42037;DHT22;30340;52.004;5.908;2023-11-21T08:31:01;10.90;98.00
42037;DHT22;30340;52.004;5.908;2023-11-21T08:33:27;11.00;98.00
42037;DHT22;30340;52.004;5.908;2023-11-21T08:35:53;11.00;97.90
42037;DHT22;30340;52.004;5.908;2023-11-21T08:38:18;11.00;97.90
42037;DHT22;30340;52.004;5.908;2023-11-21T08:40:43;11.00;97.90
42037;DHT22;30340;52.004;5.908;2023-11-21T08:43:09;11.10;98.00
42037;DHT22;30340;52.004;5.908;2023-11-21T08:45:37;11.10;98.00
42037;DHT22;30340;52.004;5.908;2023-11-21T08:48:02;11.10;97.90
42037;DHT22;30340;52.004;5.908;2023-11-21T08:50:28;11.10;98.00
42037;DHT22;30340;52.004;5.908;2023-11-21T08:52:54;11.10;98.10
42037;DHT22;30340;52.004;5.908;2023-11-21T08:55:21;11.20;98.00
42037;DHT22;30340;52.004;5.908;2023-11-21T08:57:47;11.30;97.90
42037;DHT22;30340;52.004;5.908;2023-11-21T09:00:13;11.30;97.70
42037;DHT22;30340;52.004;5.908;2023-11-21T09:02:43;11.30;97.60
42037;DHT22;30340;52.004;5.908;2023-11-21T09:05:08;11.30;97.60
42037;DHT22;30340;52.004;5.908;2023-11-21T09:07:34;11.30;97.70
42037;DHT22;30340;52.004;5.908;2023-11-21T09:10:00;11.30;97.70
42037;DHT22;30340;52.004;5.908;2023-11-21T09:12:26;11.40;97.70
42037;DHT22;30340;52.004;5.908;2023-11-21T09:14:51;11.40;97.80
42037;DHT22;30340;52.004;5.908;2023-11-21T09:17:17;11.50;97.70
42037;DHT22;30340;52.004;5.908;2023-11-21T09:19:42;11.40;97.60
42037;DHT22;30340;52.004;5.908;2023-11-21T09:22:15;11.50;97.70
42037;DHT22;30340;52.004;5.908;2023-11-21T09:24:40;11.50;97.70
42037;DHT22;30340;52.004;5.908;2023-11-21T09:27:06;11.50;97.70
42037;DHT22;30340;52.004;5.908;2023-11-21T09:29:31;11.60;97.70
42037;DHT22;30340;52.004;5.908;2023-11-21T09:31:59;11.60;97.70
42037;DHT22;30340;52.004;5.908;2023-11-21T09:34:26;11.60;97.60
42037;DHT22;30340;52.004;5.908;2023-11-21T09:36:52;11.60;97.60
42037;DHT22;30340;52.004;5.908;2023-11-21T09:39:18;11.60;97.50
42037;DHT22;30340;52.004;5.908;2023-11-21T09:41:46;11.60;97.40
42037;DHT22;30340;52.004;5.908;2023-11-21T09:44:15;11.70;97.50
42037;DHT22;30340;52.004;5.908;2023-11-21T09:46:42;11.70;97.40
42037;DHT22;30340;52.004;5.908;2023-11-21T09:49:11;11.70;97.40
42037;DHT22;30340;52.004;5.908;2023-11-21T09:51:44;11.60;97.30
42037;DHT22;30340;52.004;5.908;2023-11-21T09:54:11;11.60;97.30
42037;DHT22;30340;52.004;5.908;2023-11-21T09:56:37;11.60;97.30
42037;DHT22;30340;52.004;5.908;2023-11-21T09:59:03;11.70;97.60
42037;DHT22;30340;52.004;5.908;2023-11-21T10:01:32;11.70;97.30
42037;DHT22;30340;52.004;5.908;2023-11-21T10:03:58;11.70;97.20
42037;DHT22;30340;52.004;5.908;2023-11-21T10:06:24;11.80;97.20
42037;DHT22;30340;52.004;5.908;2023-11-21T10:08:52;11.80;97.10
42037;DHT22;30340;52.004;5.908;2023-11-21T10:11:19;11.80;97.10
42037;DHT22;30340;52.004;5.908;2023-11-21T10:13:45;11.90;97.10
42037;DHT22;30340;52.004;5.908;2023-11-21T10:16:12;11.90;97.10
42037;DHT22;30340;52.004;5.908;2023-11-21T10:18:39;11.90;97.20
42037;DHT22;30340;52.004;5.908;2023-11-21T10:21:06;11.80;97.30
42037;DHT22;30340;52.004;5.908;2023-11-21T10:23:32;11.80;97.30
42037;DHT22;30340;52.004;5.908;2023-11-21T10:25:57;11.90;97.40
42037;DHT22;30340;52.004;5.908;2023-11-21T10:28:24;11.90;97.30
42037;DHT22;30340;52.004;5.908;2023-11-21T10:30:50;11.90;97.30
42037;DHT22;30340;52.004;5.908;2023-11-21T10:33:15;11.90;97.30
42037;DHT22;30340;52.004;5.908;2023-11-21T10:38:07;11.70;97.50
42037;DHT22;30340;52.004;5.908;2023-11-21T10:40:38;11.70;97.80
42037;DHT22;30340;52.004;5.908;2023-11-21T10:43:08;11.60;98.00
42037;DHT22;30340;52.004;5.908;2023-11-21T10:45:38;11.70;98.20
42037;DHT22;30340;52.004;5.908;2023-11-21T10:48:07;11.80;98.30
42037;DHT22;30340;52.004;5.908;2023-11-21T10:50:40;11.80;98.10
42037;DHT22;30340;52.004;5.908;2023-11-21T10:53:06;11.80;98.00
42037;DHT22;30340;52.004;5.908;2023-11-21T10:55:34;11.80;98.00
42037;DHT22;30340;52.004;5.908;2023-11-21T10:58:03;11.80;98.00
42037;DHT22;30340;52.004;5.908;2023-11-21T11:00:30;11.80;98.00
42037;DHT22;30340;52.004;5.908;2023-11-21T11:02:55;11.80;98.00
42037;DHT22;30340;52.004;5.908;2023-11-21T11:05:22;11.80;98.00
42037;DHT22;30340;52.004;5.908;2023-11-21T11:07:54;11.80;98.00
42037;DHT22;30340;52.004;5.908;2023-11-21T11:10:25;11.80;98.00
42037;DHT22;30340;52.004;5.908;2023-11-21T11:12:53;11.70;97.90
42037;DHT22;30340;52.004;5.908;2023-11-21T11:15:19;11.70;98.00
42037;DHT22;30340;52.004;5.908;2023-11-21T11:17:45;11.60;98.00
42037;DHT22;30340;52.004;5.908;2023-11-21T11:20:11;11.60;98.10
42037;DHT22;30340;52.004;5.908;2023-11-21T11:22:40;11.60;98.20
42037;DHT22;30340;52.004;5.908;2023-11-21T11:27:54;11.60;98.30
42037;DHT22;30340;52.004;5.908;2023-11-21T11:30:25;11.50;98.50
42037;DHT22;30340;52.004;5.908;2023-11-21T11:35:26;11.50;98.50
42037;DHT22;30340;52.004;5.908;2023-11-21T11:37:57;11.50;98.40
42037;DHT22;30340;52.004;5.908;2023-11-21T11:40:25;11.50;98.50
42037;DHT22;30340;52.004;5.908;2023-11-21T11:42:57;11.50;98.80
42037;DHT22;30340;52.004;5.908;2023-11-21T11:45:24;11.40;98.70
42037;DHT22;30340;52.004;5.908;2023-11-21T11:47:56;11.50;98.70
42037;DHT22;30340;52.004;5.908;2023-11-21T11:50:22;11.50;98.70
42037;DHT22;30340;52.004;5.908;2023-11-21T11:52:48;11.50;98.70
42037;DHT22;30340;52.004;5.908;2023-11-21T11:55:16;11.50;98.60
42037;DHT22;30340;52.004;5.908;2023-11-21T11:57:53;11.50;98.70
42037;DHT22;30340;52.004;5.908;2023-11-21T12:02:53;11.60;98.90
42037;DHT22;30340;52.004;5.908;2023-11-21T12:05:19;11.70;98.80
42037;DHT22;30340;52.004;5.908;2023-11-21T12:10:14;11.70;98.60
42037;DHT22;30340;52.004;5.908;2023-11-21T12:12:50;11.70;98.60
42037;DHT22;30340;52.004;5.908;2023-11-21T12:15:15;11.80;98.60
42037;DHT22;30340;52.004;5.908;2023-11-21T12:17:42;11.70;98.60
42037;DHT22;30340;52.004;5.908;2023-11-21T12:20:09;11.70;98.70
42037;DHT22;30340;52.004;5.908;2023-11-21T12:22:41;11.70;98.60
42037;DHT22;30340;52.004;5.908;2023-11-21T12:25:06;11.60;98.60
42037;DHT22;30340;52.004;5.908;2023-11-21T12:27:32;11.50;98.90
42037;DHT22;30340;52.004;5.908;2023-11-21T12:29:57;11.50;98.90
42037;DHT22;30340;52.004;5.908;2023-11-21T12:32:24;11.50;99.10
42037;DHT22;30340;52.004;5.908;2023-11-21T12:34:50;11.50;99.20
42037;DHT22;30340;52.004;5.908;2023-11-21T12:37:16;11.40;99.20
42037;DHT22;30340;52.004;5.908;2023-11-21T12:39:42;11.50;99.30
42037;DHT22;30340;52.004;5.908;2023-11-21T12:42:07;11.50;99.20
42037;DHT22;30340;52.004;5.908;2023-11-21T12:44:34;11.50;99.20
42037;DHT22;30340;52.004;5.908;2023-11-21T12:46:59;11.50;99.20
42037;DHT22;30340;52.004;5.908;2023-11-21T12:49:25;11.50;99.20
42037;DHT22;30340;52.004;5.908;2023-11-21T12:51:50;11.40;99.10
42037;DHT22;30340;52.004;5.908;2023-11-21T12:54:16;11.40;99.20
42037;DHT22;30340;52.004;5.908;2023-11-21T12:56:44;11.40;99.30
42037;DHT22;30340;52.004;5.908;2023-11-21T12:59:12;11.50;99.30
42037;DHT22;30340;52.004;5.908;2023-11-21T13:01:41;11.50;99.30
42037;DHT22;30340;52.004;5.908;2023-11-21T13:04:07;11.40;99.20
42037;DHT22;30340;52.004;5.908;2023-11-21T13:06:32;11.50;99.30
42037;DHT22;30340;52.004;5.908;2023-11-21T13:09:03;11.50;99.30
42037;DHT22;30340;52.004;5.908;2023-11-21T13:11:33;11.50;99.30
42037;DHT22;30340;52.004;5.908;2023-11-21T13:13:59;11.50;99.30
42037;DHT22;30340;52.004;5.908;2023-11-21T13:16:26;11.50;99.20
42037;DHT22;30340;52.004;5.908;2023-11-21T13:18:51;11.40;99.50
42037;DHT22;30340;52.004;5.908;2023-11-21T13:21:17;11.40;99.40
42037;DHT22;30340;52.004;5.908;2023-11-21T13:23:43;11.40;99.50
42037;DHT22;30340;52.004;5.908;2023-11-21T13:26:10;11.40;99.50
42037;DHT22;30340;52.004;5.908;2023-11-21T13:28:37;11.40;99.40
42037;DHT22;30340;52.004;5.908;2023-11-21T13:31:03;11.40;99.40
42037;DHT22;30340;52.004;5.908;2023-11-21T13:33:40;11.50;99.40
42037;DHT22;30340;52.004;5.908;2023-11-21T13:36:08;11.50;99.30
42037;DHT22;30340;52.004;5.908;2023-11-21T13:38:34;11.50;99.30
42037;DHT22;30340;52.004;5.908;2023-11-21T13:41:01;11.60;99.40
42037;DHT22;30340;52.004;5.908;2023-11-21T13:43:26;11.60;99.20
42037;DHT22;30340;52.004;5.908;2023-11-21T13:45:54;11.60;99.10
42037;DHT22;30340;52.004;5.908;2023-11-21T13:48:38;11.60;99.10
42037;DHT22;30340;52.004;5.908;2023-11-21T13:51:07;11.60;99.10
42037;DHT22;30340;52.004;5.908;2023-11-21T13:53:43;11.60;99.10
42037;DHT22;30340;52.004;5.908;2023-11-21T13:56:09;11.50;99.10
42037;DHT22;30340;52.004;5.908;2023-11-21T13:58:35;11.50;99.10
42037;DHT22;30340;52.004;5.908;2023-11-21T14:01:16;11.40;99.10
42037;DHT22;30340;52.004;5.908;2023-11-21T14:04:03;11.20;99.30
42037;DHT22;30340;52.004;5.908;2023-11-21T14:06:51;11.10;99.60
42037;DHT22;30340;52.004;5.908;2023-11-21T14:09:23;11.00;99.80
42037;DHT22;30340;52.004;5.908;2023-11-21T14:11:57;11.00;99.90
42037;DHT22;30340;52.004;5.908;2023-11-21T14:14:25;11.00;99.90
42037;DHT22;30340;52.004;5.908;2023-11-21T14:16:51;10.90;99.90
42037;DHT22;30340;52.004;5.908;2023-11-21T14:19:17;10.90;99.90
42037;DHT22;30340;52.004;5.908;2023-11-21T14:21:46;10.90;99.90
42037;DHT22;30340;52.004;5.908;2023-11-21T14:24:14;10.90;99.90
42037;DHT22;30340;52.004;5.908;2023-11-21T14:26:41;10.90;99.90
42037;DHT22;30340;52.004;5.908;2023-11-21T14:29:07;10.90;99.90
42037;DHT22;30340;52.004;5.908;2023-11-21T14:31:33;10.90;99.90
42037;DHT22;30340;52.004;5.908;2023-11-21T14:33:59;10.80;99.90
42037;DHT22;30340;52.004;5.908;2023-11-21T14:36:27;10.80;99.90
42037;DHT22;30340;52.004;5.908;2023-11-21T14:38:52;10.80;99.90
42037;DHT22;30340;52.004;5.908;2023-11-21T14:41:18;10.80;99.90
42037;DHT22;30340;52.004;5.908;2023-11-21T14:43:44;10.90;99.90
42037;DHT22;30340;52.004;5.908;2023-11-21T14:46:11;10.80;99.90
42037;DHT22;30340;52.004;5.908;2023-11-21T14:48:39;10.90;99.90
42037;DHT22;30340;52.004;5.908;2023-11-21T14:51:10;10.90;99.90
42037;DHT22;30340;52.004;5.908;2023-11-21T14:53:55;10.80;99.80
42037;DHT22;30340;52.004;5.908;2023-11-21T14:56:23;10.80;99.90
42037;DHT22;30340;52.004;5.908;2023-11-21T14:59:00;10.80;99.90
42037;DHT22;30340;52.004;5.908;2023-11-21T15:01:37;10.80;99.90
42037;DHT22;30340;52.004;5.908;2023-11-21T15:04:21;10.70;99.70
42037;DHT22;30340;52.004;5.908;2023-11-21T15:06:59;10.70;99.80
42037;DHT22;30340;52.004;5.908;2023-11-21T15:09:25;10.60;99.70
42037;DHT22;30340;52.004;5.908;2023-11-21T15:12:00;10.60;99.80
42037;DHT22;30340;52.004;5.908;2023-11-21T15:14:46;10.40;99.70
42037;DHT22;30340;52.004;5.908;2023-11-21T15:17:14;10.30;99.90
42037;DHT22;30340;52.004;5.908;2023-11-21T15:19:55;10.20;99.90
42037;DHT22;30340;52.004;5.908;2023-11-21T15:22:21;10.20;99.90
42037;DHT22;30340;52.004;5.908;2023-11-21T15:24:47;10.20;99.90
42037;DHT22;30340;52.004;5.908;2023-11-21T15:27:14;10.10;99.90
42037;DHT22;30340;52.004;5.908;2023-11-21T15:29:41;10.10;99.90
42037;DHT22;30340;52.004;5.908;2023-11-21T15:32:07;10.00;99.90
42037;DHT22;30340;52.004;5.908;2023-11-21T15:34:33;10.10;99.90
42037;DHT22;30340;52.004;5.908;2023-11-21T15:36:59;10.00;99.90
42037;DHT22;30340;52.004;5.908;2023-11-21T15:39:24;10.00;99.90
42037;DHT22;30340;52.004;5.908;2023-11-21T15:41:54;10.00;99.90
42037;DHT22;30340;52.004;5.908;2023-11-21T15:44:20;10.00;99.90
42037;DHT22;30340;52.004;5.908;2023-11-21T15:46:45;10.00;99.90